Saint Angelo, United Kingdom
Current Conditions -  °F | °C
As of 6:00 PM on Wednesday 22 Oct 2014 (Local Time) from EISG Reporting Station
Broken Clouds Broken Clouds  
Wind Chill: 55°   Ceiling: 3400
Heat Index: 55°   Visibility: 5mi
Dew Point: 48°   Wind: 16mph
Humidity: 77%   Direction: 230°SW
Pressure: 30.03"   Gusts: 28mph
Location:  54.4°N, 7.65°W
Report Text: EISG 221700Z 23014G24KT 8000 FEW026 BKN034 13/09 Q1017
Loading
Personal Weather Stations






























Interactive Weather Map New forecast layout! Learn more

10-Day Weather Forecast

Advertisements
Track Severe Weather on mobile